createdAt,value
2022-08-17T00:01:51.896Z,73.00
2022-08-17T00:04:20.378Z,72.97
2022-08-17T00:06:49.353Z,73.16
2022-08-17T00:09:18.766Z,72.99
2022-08-17T00:12:03.981Z,72.67
2022-08-17T00:14:36.144Z,73.34
2022-08-17T00:17:04.815Z,73.02
2022-08-17T00:19:32.932Z,73.21
2022-08-17T00:22:31.047Z,73.39
2022-08-17T00:24:49.732Z,73.14
2022-08-17T00:27:16.447Z,73.30
2022-08-17T00:29:45.519Z,73.46
2022-08-17T00:33:12.019Z,73.69
2022-08-17T00:35:05.570Z,73.73
2022-08-17T00:37:32.194Z,74.00
2022-08-17T00:39:58.926Z,73.47
2022-08-17T00:42:30.787Z,73.95
2022-08-17T00:44:58.222Z,74.01
2022-08-17T00:47:24.850Z,73.59
2022-08-17T00:49:51.875Z,73.54
2022-08-17T00:52:23.080Z,73.46
2022-08-17T00:54:54.009Z,73.54
2022-08-17T00:57:26.273Z,73.89
2022-08-17T01:00:02.283Z,73.72
2022-08-17T01:02:41.201Z,72.93
2022-08-17T01:05:15.201Z,73.25
2022-08-17T01:07:42.891Z,73.09
2022-08-17T01:10:58.125Z,73.58
2022-08-17T01:13:02.601Z,73.42
2022-08-17T01:15:31.323Z,73.40
2022-08-17T01:17:58.042Z,73.18
2022-08-17T01:20:25.122Z,73.63
2022-08-17T01:22:52.204Z,73.39
2022-08-17T01:25:20.376Z,72.99
2022-08-17T01:27:47.565Z,73.75
2022-08-17T01:30:56.861Z,73.50
2022-08-17T01:33:01.333Z,72.93
2022-08-17T01:35:27.919Z,72.86
2022-08-17T01:37:54.604Z,73.33
2022-08-17T01:40:40.948Z,74.15
2022-08-17T01:43:15.013Z,73.05
2022-08-17T01:45:45.944Z,73.55
2022-08-17T01:48:13.201Z,73.72
2022-08-17T01:50:43.604Z,73.06
2022-08-17T01:53:15.541Z,73.36
2022-08-17T01:55:47.387Z,72.97
2022-08-17T01:58:14.108Z,72.99
2022-08-17T02:00:59.418Z,72.87
2022-08-17T02:03:29.028Z,73.04
2022-08-17T02:05:55.818Z,73.64
2022-08-17T02:08:37.079Z,72.96
2022-08-17T02:11:11.637Z,73.08
2022-08-17T02:13:39.262Z,73.36
2022-08-17T02:16:06.116Z,72.76
2022-08-17T02:18:33.014Z,73.04
2022-08-17T02:21:00.207Z,73.04
2022-08-17T02:23:30.417Z,73.57
2022-08-17T02:25:59.390Z,73.45
2022-08-17T02:28:26.623Z,73.48
2022-08-17T02:31:01.256Z,73.12
2022-08-17T02:33:41.864Z,73.36
2022-08-17T02:36:11.319Z,73.41
2022-08-17T02:38:38.899Z,74.00
2022-08-17T02:41:06.055Z,73.88
2022-08-17T02:43:32.819Z,73.92
2022-08-17T02:45:59.473Z,73.35
2022-08-17T02:48:31.651Z,73.61
2022-08-17T02:50:59.686Z,73.78
2022-08-17T02:53:26.798Z,73.76
2022-08-17T02:55:53.765Z,74.02
2022-08-17T02:58:35.458Z,74.30
2022-08-17T03:01:05.323Z,73.99
2022-08-17T03:03:32.333Z,73.86
2022-08-17T03:05:58.957Z,73.82
2022-08-17T03:08:25.836Z,73.83
2022-08-17T03:10:53.091Z,74.28
2022-08-17T03:13:20.142Z,73.65
2022-08-17T03:15:48.522Z,73.92
2022-08-17T03:18:25.335Z,74.22
2022-08-17T03:20:56.059Z,73.65
2022-08-17T03:23:25.469Z,73.70
2022-08-17T03:25:53.113Z,74.41
2022-08-17T03:28:20.502Z,74.06
2022-08-17T03:30:47.167Z,73.90
2022-08-17T03:33:13.909Z,74.79
2022-08-17T03:35:40.876Z,74.63
2022-08-17T03:38:10.212Z,74.10
2022-08-17T03:40:56.878Z,74.44
2022-08-17T03:43:25.173Z,74.65
2022-08-17T03:46:28.043Z,74.37
2022-08-17T03:49:18.209Z,74.95
2022-08-17T03:52:04.758Z,74.27
2022-08-17T03:54:51.316Z,74.91
2022-08-17T03:57:19.283Z,74.77
2022-08-17T03:59:47.675Z,75.39
2022-08-17T04:02:22.324Z,74.97
2022-08-17T04:04:51.000Z,75.28
2022-08-17T04:07:20.885Z,75.10
2022-08-17T04:09:47.851Z,74.87
2022-08-17T04:12:17.231Z,75.60
2022-08-17T04:14:53.521Z,75.41
2022-08-17T04:17:24.246Z,75.27
2022-08-17T04:19:51.213Z,75.40
2022-08-17T04:22:30.069Z,75.43
2022-08-17T04:24:58.744Z,75.16
2022-08-17T04:27:25.430Z,75.23
2022-08-17T04:29:55.544Z,74.90
2022-08-17T04:33:04.252Z,75.50
2022-08-17T04:35:10.044Z,74.96
2022-08-17T04:37:36.741Z,75.31
2022-08-17T04:40:27.282Z,75.56
2022-08-17T04:43:14.354Z,75.08
2022-08-17T04:45:54.930Z,74.51
2022-08-17T04:48:27.875Z,75.65
2022-08-17T04:51:03.934Z,75.46
2022-08-17T04:53:30.569Z,74.84
2022-08-17T04:55:59.099Z,75.87
2022-08-17T04:58:26.239Z,75.40
2022-08-17T05:00:52.940Z,75.35
2022-08-17T05:03:19.699Z,74.65
2022-08-17T05:05:49.727Z,74.48
2022-08-17T05:08:19.030Z,75.42
2022-08-17T05:10:46.952Z,74.80
2022-08-17T05:13:18.660Z,75.36
2022-08-17T05:15:47.682Z,75.01
2022-08-17T05:18:16.555Z,74.82
2022-08-17T05:20:43.734Z,74.75
2022-08-17T05:23:14.798Z,74.98
2022-08-17T05:25:46.240Z,74.67
2022-08-17T05:28:16.111Z,75.02
2022-08-17T05:30:43.806Z,75.23
2022-08-17T05:33:15.010Z,74.69
2022-08-17T05:35:44.456Z,74.77
2022-08-17T05:38:11.493Z,75.61
2022-08-17T05:40:38.854Z,75.17
2022-08-17T05:45:55.520Z,75.44
2022-08-17T05:48:39.496Z,75.22
2022-08-17T05:53:53.969Z,75.01
2022-08-17T05:56:48.366Z,74.76
2022-08-17T06:02:26.285Z,75.46
2022-08-17T06:16:04.720Z,74.55
2022-08-17T06:21:35.910Z,75.23
2022-08-17T06:24:14.663Z,74.85
2022-08-17T06:26:45.431Z,75.11
2022-08-17T06:31:49.019Z,74.46
2022-08-17T06:34:15.692Z,74.72
2022-08-17T06:44:51.607Z,75.56
2022-08-17T06:47:31.754Z,75.21
2022-08-17T06:50:21.946Z,75.19
2022-08-17T06:53:28.326Z,75.34
2022-08-17T06:56:02.393Z,74.98
2022-08-17T06:58:31.481Z,75.07
2022-08-17T07:01:06.023Z,75.36
2022-08-17T07:03:39.652Z,74.81
2022-08-17T07:06:14.654Z,74.67
2022-08-17T07:08:53.713Z,74.92
2022-08-17T07:11:30.100Z,74.88
2022-08-17T07:14:37.692Z,75.18
2022-08-17T07:17:10.434Z,75.36
2022-08-17T07:19:45.575Z,74.89
2022-08-17T07:24:59.713Z,74.86
2022-08-17T07:30:26.233Z,75.29
2022-08-17T07:33:01.063Z,75.31
2022-08-17T07:38:25.748Z,74.99
2022-08-17T07:43:45.086Z,74.91
2022-08-17T07:48:52.302Z,74.42
2022-08-17T07:51:26.091Z,74.15
2022-08-17T07:54:12.910Z,74.45
2022-08-17T07:56:44.666Z,74.61
2022-08-17T08:04:59.244Z,73.78
2022-08-17T08:07:31.975Z,74.22
2022-08-17T08:12:42.438Z,74.54
2022-08-17T08:17:54.540Z,74.92
2022-08-17T08:20:50.987Z,74.93
2022-08-17T08:23:57.383Z,74.53
2022-08-17T08:37:36.654Z,74.40
2022-08-17T08:53:58.735Z,74.07
2022-08-17T09:02:18.188Z,74.75
2022-08-17T09:05:16.839Z,74.48
2022-08-17T09:08:23.420Z,74.61
2022-08-17T09:27:09.202Z,74.73
2022-08-17T09:29:41.280Z,74.00
2022-08-17T09:32:22.226Z,73.99
2022-08-17T09:34:54.853Z,73.95
2022-08-17T09:38:01.458Z,74.24
2022-08-17T09:40:48.682Z,74.39
2022-08-17T09:45:57.943Z,73.35
2022-08-17T09:48:32.105Z,74.23
2022-08-17T09:51:40.206Z,73.96
2022-08-17T10:21:17.569Z,73.52
2022-08-17T10:55:19.438Z,72.60
2022-08-17T10:57:50.191Z,72.75
2022-08-17T11:26:58.973Z,72.54
2022-08-17T11:29:33.793Z,71.95
2022-08-17T11:32:13.545Z,71.87
2022-08-17T11:34:43.469Z,72.25
2022-08-17T11:37:24.130Z,72.06
2022-08-17T11:45:57.206Z,71.41
2022-08-17T12:09:25.119Z,72.49
2022-08-17T12:12:13.728Z,71.76
2022-08-17T12:15:08.885Z,73.32
2022-08-17T12:17:41.244Z,72.45
2022-08-17T12:20:21.468Z,72.61
2022-08-17T12:23:01.069Z,71.86
2022-08-17T12:28:24.755Z,73.03
2022-08-17T12:30:52.379Z,72.50
2022-08-17T12:33:25.020Z,72.55
2022-08-17T12:36:00.581Z,72.08
2022-08-17T12:38:32.328Z,72.56
2022-08-17T12:41:21.333Z,72.33
2022-08-17T12:43:58.685Z,71.44
2022-08-17T12:46:25.757Z,71.75
2022-08-17T12:48:58.859Z,71.71
2022-08-17T12:51:27.660Z,72.19
2022-08-17T12:53:55.562Z,72.09
2022-08-17T12:56:22.420Z,71.41
2022-08-17T12:58:54.309Z,71.63
2022-08-17T13:01:26.808Z,71.57
2022-08-17T13:04:00.122Z,71.76
2022-08-17T13:06:34.160Z,71.18
2022-08-17T13:09:12.873Z,71.09
2022-08-17T13:12:02.201Z,70.90
2022-08-17T13:14:29.412Z,71.17
2022-08-17T13:17:02.187Z,70.49
2022-08-17T13:19:40.889Z,70.81
2022-08-17T13:22:12.551Z,71.34
2022-08-17T13:24:53.411Z,70.24
2022-08-17T13:27:22.515Z,70.66
2022-08-17T13:29:53.766Z,70.17
2022-08-17T13:35:15.012Z,70.13
2022-08-17T13:38:05.048Z,70.47
2022-08-17T13:40:38.326Z,70.06
2022-08-17T13:43:05.411Z,69.88
2022-08-17T13:45:43.514Z,70.17
2022-08-17T13:53:51.221Z,70.04
2022-08-17T13:56:39.687Z,69.72
2022-08-17T13:59:11.259Z,69.58
2022-08-17T14:04:18.526Z,69.07
2022-08-17T14:09:36.810Z,68.61
2022-08-17T14:12:06.533Z,69.04
2022-08-17T14:14:33.357Z,68.65
2022-08-17T14:17:00.026Z,69.05
2022-08-17T14:19:26.739Z,68.01
2022-08-17T14:21:56.515Z,67.99
2022-08-17T14:24:29.759Z,68.12
2022-08-17T14:26:57.670Z,68.40
2022-08-17T14:29:27.995Z,68.06
2022-08-17T14:31:56.302Z,67.59
2022-08-17T14:34:24.610Z,67.46
2022-08-17T14:36:52.294Z,68.12
2022-08-17T14:39:20.308Z,67.86
2022-08-17T14:41:47.183Z,67.87
2022-08-17T14:44:15.714Z,68.14
2022-08-17T14:46:44.555Z,68.26
2022-08-17T14:49:13.160Z,68.24
2022-08-17T14:51:43.815Z,68.20
2022-08-17T14:54:11.907Z,67.94
2022-08-17T14:57:22.184Z,68.20
2022-08-17T14:59:45.498Z,68.00
2022-08-17T15:02:13.238Z,67.98
2022-08-17T15:04:44.960Z,68.43
2022-08-17T15:07:12.418Z,67.67
2022-08-17T15:09:39.196Z,68.17
2022-08-17T15:12:06.755Z,67.95
2022-08-17T15:14:35.480Z,67.20
2022-08-17T15:17:03.859Z,67.52
2022-08-17T15:19:30.625Z,67.02
2022-08-17T15:21:57.538Z,67.11
2022-08-17T15:24:24.147Z,67.25
2022-08-17T15:26:51.470Z,67.66
2022-08-17T15:29:18.079Z,67.20
2022-08-17T15:31:44.782Z,66.87
2022-08-17T15:34:11.999Z,67.37
2022-08-17T15:36:38.916Z,67.36
2022-08-17T15:39:15.649Z,67.94
2022-08-17T15:41:47.354Z,67.72
2022-08-17T15:44:32.350Z,67.55
2022-08-17T15:47:02.147Z,67.22
2022-08-17T15:49:28.925Z,67.42
2022-08-17T15:51:55.547Z,67.68
2022-08-17T15:54:23.542Z,67.67
2022-08-17T15:56:50.716Z,67.47
2022-08-17T15:59:17.397Z,67.60
2022-08-17T16:03:04.662Z,67.88
2022-08-17T16:04:31.906Z,67.89
2022-08-17T16:07:00.048Z,67.68
2022-08-17T16:09:27.584Z,67.76
2022-08-17T16:11:56.107Z,67.59
2022-08-17T16:14:32.407Z,68.20
2022-08-17T16:17:02.397Z,68.25
2022-08-17T16:19:29.023Z,67.92
2022-08-17T16:21:55.706Z,68.00
2022-08-17T16:24:22.301Z,67.42
2022-08-17T16:26:48.912Z,67.56
2022-08-17T16:29:15.548Z,67.75
2022-08-17T16:31:43.271Z,67.59
2022-08-17T16:34:17.739Z,67.14
2022-08-17T16:36:54.738Z,67.27
2022-08-17T16:39:22.779Z,67.49
2022-08-17T16:41:50.377Z,67.45
2022-08-17T16:44:20.277Z,67.53
2022-08-17T16:46:48.500Z,67.31
2022-08-17T16:49:35.244Z,67.84
2022-08-17T16:52:04.124Z,67.49
2022-08-17T16:54:30.853Z,68.00
2022-08-17T16:56:57.500Z,67.85
2022-08-17T16:59:38.846Z,67.51
2022-08-17T17:02:11.239Z,67.73
2022-08-17T17:04:45.924Z,67.94
2022-08-17T17:09:49.121Z,68.12
2022-08-17T17:12:19.184Z,67.70
2022-08-17T17:15:02.238Z,67.72
2022-08-17T17:17:33.893Z,68.04
2022-08-17T17:20:10.120Z,68.12
2022-08-17T17:33:48.279Z,67.83
2022-08-17T17:36:54.679Z,67.82
2022-08-17T17:44:40.992Z,67.29
2022-08-17T17:47:07.824Z,67.43
2022-08-17T17:49:38.288Z,67.89
2022-08-17T17:52:19.166Z,67.85
2022-08-17T17:55:16.076Z,67.42
2022-08-17T18:00:49.903Z,67.33
2022-08-17T18:03:56.268Z,67.87
2022-08-17T18:06:46.404Z,67.15
2022-08-17T18:12:22.099Z,66.59
2022-08-17T18:26:20.219Z,68.39
2022-08-17T18:28:50.748Z,67.94
2022-08-17T18:31:21.020Z,68.01
2022-08-17T18:33:50.707Z,67.85
2022-08-17T18:36:34.141Z,68.96
2022-08-17T18:39:25.662Z,68.48
2022-08-17T18:41:56.747Z,67.93
2022-08-17T18:44:43.998Z,68.09
2022-08-17T18:47:20.275Z,68.10
2022-08-17T18:49:57.467Z,68.22
2022-08-17T18:55:23.912Z,67.71
2022-08-17T18:57:55.568Z,68.20
2022-08-17T19:03:03.495Z,68.64
2022-08-17T19:05:36.750Z,68.60
2022-08-17T19:11:23.661Z,68.46
2022-08-17T19:14:02.264Z,68.96
2022-08-17T19:19:13.629Z,68.83
2022-08-17T19:21:53.198Z,69.13
2022-08-17T19:24:23.479Z,69.19
2022-08-17T19:29:37.044Z,68.56
2022-08-17T19:32:06.489Z,68.86
2022-08-17T19:34:35.774Z,69.36
2022-08-17T19:37:09.965Z,69.50
2022-08-17T19:40:03.467Z,68.97
2022-08-17T19:48:21.808Z,69.46
2022-08-17T19:50:56.392Z,69.21
2022-08-17T19:56:21.618Z,69.56
2022-08-17T20:06:53.281Z,69.26
2022-08-17T20:09:46.078Z,69.34
2022-08-17T20:14:57.284Z,69.60
2022-08-17T20:17:41.028Z,69.64
2022-08-17T20:20:34.962Z,69.72
2022-08-17T20:23:11.726Z,69.67
2022-08-17T20:25:46.751Z,69.61
2022-08-17T20:28:35.042Z,69.55
2022-08-17T20:31:02.771Z,69.17
2022-08-17T20:41:23.028Z,69.69
2022-08-17T20:44:03.021Z,69.60
2022-08-17T21:05:26.491Z,69.78
2022-08-17T21:08:01.738Z,69.53
2022-08-17T21:10:35.864Z,69.73
2022-08-17T21:16:20.789Z,69.73
2022-08-17T21:21:41.377Z,70.00
2022-08-17T21:24:48.038Z,69.92
2022-08-17T21:35:28.250Z,69.48
2022-08-17T21:38:02.434Z,70.11
2022-08-17T21:40:32.022Z,69.63
2022-08-17T21:43:16.963Z,69.56
2022-08-17T21:45:53.880Z,69.83
2022-08-17T21:48:24.620Z,70.22
2022-08-17T21:56:25.955Z,69.54
2022-08-17T21:58:59.322Z,69.62
2022-08-17T22:01:31.336Z,69.95
2022-08-17T22:04:03.899Z,69.67
2022-08-17T22:06:56.490Z,69.78
2022-08-17T22:19:56.475Z,70.03
2022-08-17T22:25:25.407Z,69.73
2022-08-17T22:27:57.520Z,70.02
2022-08-17T22:33:41.995Z,69.85
2022-08-17T22:38:46.453Z,70.07
2022-08-17T22:49:58.075Z,71.10
2022-08-17T22:52:59.353Z,70.92
2022-08-17T22:55:47.411Z,70.98
2022-08-17T22:58:37.469Z,70.47
2022-08-17T23:01:26.359Z,70.82
2022-08-17T23:04:01.406Z,71.28
2022-08-17T23:06:28.975Z,70.76
2022-08-17T23:08:56.630Z,71.25
2022-08-17T23:11:36.731Z,71.31
2022-08-17T23:14:15.844Z,71.19
2022-08-17T23:16:42.853Z,71.07
2022-08-17T23:19:15.758Z,71.09
2022-08-17T23:21:45.124Z,71.10
2022-08-17T23:24:17.153Z,71.27
2022-08-17T23:26:43.768Z,71.22
2022-08-17T23:29:10.481Z,71.52
2022-08-17T23:31:38.979Z,70.94
2022-08-17T23:34:10.407Z,71.35
2022-08-17T23:36:37.551Z,72.07
2022-08-17T23:39:05.225Z,71.93
2022-08-17T23:41:36.349Z,71.73
2022-08-17T23:44:05.581Z,71.72
2022-08-17T23:46:32.870Z,71.38
2022-08-17T23:48:59.574Z,71.53
2022-08-17T23:51:31.008Z,71.21
2022-08-17T23:54:07.663Z,71.31
2022-08-17T23:56:38.764Z,71.27
2022-08-17T23:59:05.615Z,71.74
